Time;durP1;ratioP1;P1;durP2;ratioP2;P2;SDS_P1;SDS_P2;PMS_P1;PMS_P2;Temp;Humidity;BMP_temperature;BMP_pressure;BME280_temperature;BME280_humidity;BME280_pressure;Samples;Min_cycle;Max_cycle;Signal;HPM_P1;HPM_P2
2022/05/24 00:00:12;;;;;;;16.88;9.98;;;;;;;14.04;nan;99421.31;10419639;28;20041;-74
2022/05/24 00:05:15;;;;;;;17.25;11.32;;;;;;;13.89;nan;99364.59;10446999;28;20726;-76
2022/05/24 00:10:22;;;;;;;18.83;11.93;;;;;;;13.83;nan;99344.50;10411684;28;20045;-75
2022/05/24 00:15:30;;;;;;;20.13;13.10;;;;;;;13.78;nan;99334.06;10438391;28;20055;-74
2022/05/24 00:20:36;;;;;;;17.83;11.43;;;;;;;13.72;nan;99309.63;10412806;28;20052;-76
2022/05/24 00:25:42;;;;;;;17.58;11.90;;;;;;;13.62;nan;99274.78;10437820;28;20049;-75
2022/05/24 00:30:46;;;;;;;16.77;12.05;;;;;;;13.66;nan;99292.22;10432761;28;20045;-74
2022/05/24 00:35:48;;;;;;;21.40;12.45;;;;;;;13.65;nan;99300.16;10433143;28;20096;-75
2022/05/24 00:40:57;;;;;;;17.55;12.02;;;;;;;13.65;nan;99305.41;10412218;28;20053;-73
2022/05/24 00:46:22;;;;;;;18.60;12.65;;;;;;;13.66;nan;99315.00;10418712;28;20046;-74
2022/05/24 00:51:33;;;;;;;17.60;12.32;;;;;;;13.65;nan;99323.81;10449849;28;20064;-74
2022/05/24 00:56:49;;;;;;;18.35;11.57;;;;;;;13.58;nan;99289.72;10427371;28;20059;-74
2022/05/24 01:01:51;;;;;;;20.13;11.00;;;;;;;13.60;nan;99297.59;10442825;28;20522;-76
2022/05/24 01:06:53;;;;;;;18.48;11.02;;;;;;;13.63;nan;99315.06;10438260;28;20142;-74
2022/05/24 01:12:02;;;;;;;16.45;9.48;;;;;;;13.62;nan;99324.75;10434328;28;20515;-75
2022/05/24 01:17:04;;;;;;;16.02;7.80;;;;;;;13.55;nan;99297.66;10433633;28;20045;-75
2022/05/24 01:22:18;;;;;;;13.05;6.25;;;;;;;13.49;nan;99282.00;10424333;28;20630;-75
2022/05/24 01:27:20;;;;;;;14.77;6.30;;;;;;;13.44;nan;99268.97;10442920;28;20037;-75
2022/05/24 01:37:44;;;;;;;12.75;6.05;;;;;;;13.41;nan;99263.75;10442970;28;20048;-75
2022/05/24 01:42:45;;;;;;;10.63;5.65;;;;;;;13.36;nan;99246.34;10441308;28;20052;-75
2022/05/24 01:47:49;;;;;;;10.10;5.63;;;;;;;13.32;nan;99231.50;10441278;28;20068;-75
2022/05/24 01:52:56;;;;;;;11.50;5.53;;;;;;;13.27;nan;99213.19;10422878;28;20042;-75
2022/05/24 01:58:01;;;;;;;10.50;5.47;;;;;;;13.23;nan;99195.75;10440665;28;20052;-75
2022/05/24 02:03:04;;;;;;;12.05;5.40;;;;;;;13.12;nan;99155.66;10434000;28;20033;-75
2022/05/24 02:08:09;;;;;;;11.00;4.93;;;;;;;13.02;nan;99129.56;10415991;28;20098;-75
2022/05/24 02:13:13;;;;;;;9.43;4.47;;;;;;;12.99;nan;99108.59;10422802;28;20053;-75
2022/05/24 02:18:18;;;;;;;10.35;4.60;;;;;;;12.97;nan;99114.75;10434344;28;20041;-75
2022/05/24 02:23:20;;;;;;;8.38;4.47;;;;;;;12.95;nan;99100.81;10439758;28;20472;-75
2022/05/24 02:28:27;;;;;;;8.77;4.18;;;;;;;12.83;nan;99052.84;10440018;28;20039;-75
2022/05/24 02:33:29;;;;;;;8.60;4.07;;;;;;;12.78;nan;99043.34;10437041;28;20071;-75
2022/05/24 02:38:30;;;;;;;7.75;4.03;;;;;;;12.77;nan;99039.00;10431193;28;20521;-76
2022/05/24 02:43:33;;;;;;;11.13;3.97;;;;;;;12.68;nan;99009.38;10437135;28;20048;-74
2022/05/24 02:48:36;;;;;;;12.45;4.35;;;;;;;12.66;nan;99005.06;10433950;28;20045;-75
2022/05/24 02:53:39;;;;;;;11.20;5.03;;;;;;;12.62;nan;98987.63;10407010;28;20515;-75
2022/05/24 02:58:42;;;;;;;12.15;4.90;;;;;;;12.53;nan;98960.66;10406460;28;20532;-75
2022/05/24 03:03:44;;;;;;;11.50;4.72;;;;;;;12.51;nan;98954.59;10413343;28;20052;-75
2022/05/24 03:14:16;;;;;;;9.48;5.68;;;;;;;12.42;nan;98919.78;10421545;28;20041;-75
2022/05/24 03:19:18;;;;;;;18.17;6.35;;;;;;;12.33;nan;98889.34;10426424;28;20041;-75
2022/05/24 03:24:20;;;;;;;10.85;5.70;;;;;;;12.29;nan;98879.81;10431080;28;20274;-75
2022/05/24 03:29:21;;;;;;;16.08;6.38;;;;;;;12.25;nan;98863.25;10412894;28;20037;-75
2022/05/24 03:34:23;;;;;;;12.18;6.22;;;;;;;12.27;nan;98871.09;10431111;28;20420;-75
2022/05/24 03:39:25;;;;;;;11.77;7.13;;;;;;;12.27;nan;98876.34;10418350;28;20056;-75
2022/05/24 03:44:26;;;;;;;14.48;7.28;;;;;;;12.26;nan;98875.47;10437762;28;20573;-74
2022/05/24 03:49:29;;;;;;;12.68;8.02;;;;;;;12.35;nan;98916.41;10437053;28;20123;-75
2022/05/24 03:54:30;;;;;;;17.38;8.20;;;;;;;12.43;nan;98947.75;10436990;28;20049;-75
2022/05/24 03:59:32;;;;;;;14.98;8.43;;;;;;;12.52;nan;98994.81;10435880;28;20041;-76
2022/05/24 04:04:34;;;;;;;16.25;8.45;;;;;;;12.58;nan;99018.34;10437207;28;20497;-75
2022/05/24 04:09:36;;;;;;;14.55;8.63;;;;;;;12.63;nan;99045.38;10436014;28;20071;-75
2022/05/24 04:14:38;;;;;;;14.35;9.32;;;;;;;12.67;nan;99073.31;10418607;28;20072;-75
2022/05/24 04:19:39;;;;;;;15.50;9.30;;;;;;;12.75;nan;99096.81;10435175;28;20397;-74
2022/05/24 04:24:41;;;;;;;14.30;9.00;;;;;;;12.79;nan;99130.00;10436862;28;20076;-75
2022/05/24 04:29:43;;;;;;;16.95;9.75;;;;;;;12.81;nan;99130.81;10444860;28;20396;-75
2022/05/24 04:34:45;;;;;;;20.30;11.15;;;;;;;12.88;nan;99171.84;10441397;28;20057;-75
2022/05/24 04:39:46;;;;;;;18.73;11.40;;;;;;;13.01;nan;99211.88;10436429;28;20037;-75
2022/05/24 04:44:48;;;;;;;19.25;11.60;;;;;;;13.09;nan;99256.44;10435320;28;20041;-75
2022/05/24 04:49:56;;;;;;;17.23;11.63;;;;;;;13.12;nan;99266.91;10398264;28;20052;-76
2022/05/24 04:55:03;;;;;;;20.63;14.02;;;;;;;13.10;nan;99273.94;10429720;28;20051;-76
2022/05/24 05:00:07;;;;;;;18.50;12.70;;;;;;;13.15;nan;99294.88;10443092;28;20056;-74
2022/05/24 05:05:09;;;;;;;18.25;12.48;;;;;;;13.22;nan;99331.53;10443185;28;20538;-74
2022/05/24 05:10:13;;;;;;;19.63;13.23;;;;;;;13.30;nan;99369.97;10441844;28;20692;-75
2022/05/24 05:15:15;;;;;;;21.00;14.00;;;;;;;13.41;nan;99404.88;10442521;28;20582;-75
2022/05/24 05:20:16;;;;;;;20.20;14.35;;;;;;;13.46;nan;99433.72;10436093;28;20041;-75
2022/05/24 05:25:18;;;;;;;21.90;15.52;;;;;;;13.49;nan;99444.19;10440967;28;20064;-75
2022/05/24 05:35:43;;;;;;;;;;;;;;;13.62;nan;99508.84;10435018;28;20509;-80
2022/05/24 05:40:45;;;;;;;28.20;16.15;;;;;;;13.65;nan;99521.09;10441251;28;19931;-76
2022/05/24 05:45:52;;;;;;;26.00;17.38;;;;;;;13.75;nan;99570.91;10435329;28;20052;-76
2022/05/24 05:50:54;;;;;;;24.40;16.70;;;;;;;13.89;nan;99631.19;10409579;28;20049;-76
2022/05/24 05:55:56;;;;;;;28.75;18.73;;;;;;;13.96;nan;99659.16;10441432;28;20090;-76
2022/05/24 06:01:00;;;;;;;29.75;20.38;;;;;;;14.01;nan;99688.03;10433933;28;20056;-76
2022/05/24 06:06:03;;;;;;;27.75;19.25;;;;;;;14.13;nan;99739.66;10429201;28;20045;-79
2022/05/24 06:11:04;;;;;;;27.92;20.33;;;;;;;14.17;nan;99759.75;10441801;28;20790;-77
2022/05/24 06:16:06;;;;;;;30.38;20.30;;;;;;;14.17;nan;99758.88;10415640;28;20033;-76
2022/05/24 06:21:08;;;;;;;30.17;21.00;;;;;;;14.19;nan;99768.50;10435578;28;20048;-77
2022/05/24 06:26:10;;;;;;;32.45;21.70;;;;;;;14.26;nan;99801.78;10452858;28;20048;-78
2022/05/24 06:31:12;;;;;;;29.00;21.27;;;;;;;14.31;nan;99828.03;10446126;28;20051;-77
2022/05/24 06:36:14;;;;;;;35.35;22.60;;;;;;;14.36;nan;99846.41;10452577;28;20044;-78
2022/05/24 06:41:16;;;;;;;34.40;21.52;;;;;;;14.43;nan;99883.16;10454010;28;20045;-79
2022/05/24 06:46:18;;;;;;;33.65;22.23;;;;;;;14.43;nan;99880.53;10451711;28;20052;-78
2022/05/24 06:51:22;;;;;;;33.42;22.75;;;;;;;14.81;nan;100050.44;10453594;28;20447;-79
2022/05/24 06:56:23;;;;;;;32.78;19.67;;;;;;;14.81;nan;100050.44;10427405;28;20144;-80
2022/05/24 07:06:46;;;;;;;;;;;;;;;15.26;nan;100247.69;10463914;28;20064;-79
2022/05/24 07:11:48;;;;;;;30.33;19.33;;;;;;;15.22;nan;100232.78;10443216;28;19972;-79
2022/05/24 07:16:51;;;;;;;23.73;17.15;;;;;;;15.14;nan;100197.72;10471169;28;20095;-79
2022/05/24 07:21:53;;;;;;;26.80;17.15;;;;;;;14.92;nan;100100.44;10458055;28;20044;-75
2022/05/24 07:26:54;;;;;;;25.55;16.83;;;;;;;14.78;nan;100037.31;10413694;28;20048;-76
2022/05/24 07:31:56;;;;;;;25.65;18.33;;;;;;;14.60;nan;99969.88;10400894;28;20409;-76
2022/05/24 07:37:21;;;;;;;27.42;19.17;;;;;;;14.47;nan;99919.13;10433709;28;20076;-84
2022/05/24 07:48:00;;;;;;;36.38;19.40;;;;;;;14.56;nan;99955.03;10430902;28;20421;-76
2022/05/24 07:53:02;;;;;;;29.92;19.60;;;;;;;14.39;nan;99875.34;10426177;28;20429;-81
2022/05/24 07:58:05;;;;;;;30.92;19.67;;;;;;;14.22;nan;99800.06;10451481;28;20113;-79
2022/05/24 08:03:07;;;;;;;22.55;17.15;;;;;;;14.13;nan;99776.50;10410618;28;20052;-78
2022/05/24 08:08:09;;;;;;;32.38;18.17;;;;;;;14.04;nan;99729.25;10457325;28;20053;-81
2022/05/24 08:13:16;;;;;;;34.33;17.30;;;;;;;13.92;nan;99686.41;10454147;28;20056;-80
2022/05/24 08:18:20;;;;;;;24.75;14.45;;;;;;;13.95;nan;99702.16;10458849;28;20140;-81
2022/05/24 08:23:24;;;;;;;27.02;14.27;;;;;;;13.88;nan;99674.19;10438798;28;20041;-80
2022/05/24 08:28:26;;;;;;;22.35;12.65;;;;;;;14.08;nan;99760.78;10441808;28;20049;-86
2022/05/24 08:33:28;;;;;;;21.83;12.15;;;;;;;14.28;nan;99841.25;10431287;28;20052;-83
2022/05/24 08:38:31;;;;;;;19.60;12.73;;;;;;;14.46;nan;99913.88;10425880;28;20056;-86
2022/05/24 08:43:38;;;;;;;15.52;11.57;;;;;;;14.47;nan;99918.22;10425874;28;20049;-85
2022/05/24 08:48:52;;;;;;;20.05;11.15;;;;;;;14.35;nan;99868.34;10417534;28;20111;-82
2022/05/24 08:53:58;;;;;;;18.23;10.75;;;;;;;14.11;nan;99762.47;10445571;28;20161;-83
2022/05/24 08:59:09;;;;;;;18.13;11.23;;;;;;;14.09;nan;99753.72;10447126;28;20064;-81
2022/05/24 09:04:12;;;;;;;23.05;12.05;;;;;;;14.03;nan;99740.66;10442498;28;20059;-77
2022/05/24 09:09:28;;;;;;;16.45;11.13;;;;;;;13.98;nan;99706.50;10433595;28;20092;-78
2022/05/24 09:14:57;;;;;;;21.75;11.00;;;;;;;14.00;nan;99717.88;10428684;28;20033;-77
2022/05/24 09:19:58;;;;;;;21.25;12.45;;;;;;;14.31;nan;99851.75;10436640;28;20264;-75
2022/05/24 09:25:00;;;;;;;19.00;10.57;;;;;;;14.74;nan;100032.09;10443617;28;20055;-74
2022/05/24 09:30:22;;;;;;;22.30;12.07;;;;;;;15.53;nan;100372.28;10444830;28;20413;-76
2022/05/24 09:35:26;;;;;;;17.05;10.25;;;;;;;15.60;nan;100405.66;10438913;28;20509;-75
2022/05/24 09:40:27;;;;;;;18.33;10.52;;;;;;;15.42;nan;100330.19;10421128;28;20053;-75
2022/05/24 09:45:36;;;;;;;20.10;10.15;;;;;;;15.38;nan;100316.13;10414163;28;20045;-77
2022/05/24 09:50:39;;;;;;;20.20;12.13;;;;;;;15.63;nan;100413.53;10434342;28;20045;-78
2022/05/24 09:56:03;;;;;;;21.48;12.30;;;;;;;15.77;nan;100465.31;10450982;28;20055;-80
2022/05/24 10:01:26;;;;;;;20.45;11.45;;;;;;;15.72;nan;100460.94;10425371;28;20647;-82
2022/05/24 10:06:30;;;;;;;16.73;9.57;;;;;;;16.53;nan;100807.22;10439841;28;20052;-80
2022/05/24 10:11:42;;;;;;;13.95;8.00;;;;;;;16.75;nan;100900.47;10466189;28;20040;-78
2022/05/24 10:16:50;;;;;;;13.82;8.18;;;;;;;16.91;nan;100970.03;10442659;28;20051;-78
2022/05/24 10:22:04;;;;;;;12.00;7.40;;;;;;;17.51;nan;101235.25;10420521;28;20050;-76
2022/05/24 10:27:29;;;;;;;13.65;7.47;;;;;;;17.41;nan;101177.00;10440802;28;20126;-77
2022/05/24 10:38:40;;;;;;;12.85;7.88;;;;;;;17.85;nan;101369.25;10436381;28;20902;-76
2022/05/24 10:43:47;;;;;;;14.57;8.90;;;;;;;17.38;nan;101155.84;10420172;28;20048;-77
2022/05/24 10:49:04;;;;;;;16.10;8.40;;;;;;;16.65;nan;100823.84;10436521;28;20049;-75
2022/05/24 10:54:34;;;;;;;17.35;9.50;;;;;;;16.12;nan;100598.81;10428209;28;20106;-76
2022/05/24 10:59:46;;;;;;;19.10;9.50;;;;;;;15.89;nan;100505.69;10413944;28;20477;-77
2022/05/24 11:05:06;;;;;;;13.82;8.02;;;;;;;16.47;nan;100737.66;10436365;28;20045;-78
2022/05/24 11:10:31;;;;;;;17.83;8.40;;;;;;;16.18;nan;100614.59;10426863;28;20065;-79
2022/05/24 11:15:39;;;;;;;14.98;7.50;;;;;;;16.13;nan;100582.09;10461549;28;20538;-76
2022/05/24 11:20:51;;;;;;;16.05;7.40;;;;;;;16.96;nan;100935.63;10453583;28;20049;-78
2022/05/24 11:26:10;;;;;;;13.50;7.32;;;;;;;16.74;nan;100840.56;10465889;28;20474;-75
2022/05/24 11:31:28;;;;;;;15.20;7.18;;;;;;;17.08;nan;100976.97;10451331;28;20045;-77
2022/05/24 11:36:36;;;;;;;11.33;6.60;;;;;;;17.53;nan;101185.78;10448153;28;20066;-76
2022/05/24 11:41:38;;;;;;;10.02;6.00;;;;;;;17.72;nan;101256.31;10443360;28;20515;-77
2022/05/24 11:46:45;;;;;;;10.23;5.65;;;;;;;18.10;nan;101414.22;10446219;28;20152;-78
2022/05/24 11:51:53;;;;;;;14.88;7.28;;;;;;;18.22;nan;101457.47;10448682;28;20048;-77
2022/05/24 11:57:15;;;;;;;8.25;5.07;;;;;;;18.71;nan;101680.06;10445564;28;20045;-78
2022/05/24 12:02:19;;;;;;;10.52;5.20;;;;;;;17.95;nan;101335.69;10449609;28;20063;-77
2022/05/24 12:12:43;;;;;;;7.78;4.07;;;;;;;17.11;nan;100945.22;10439433;28;20053;-75
2022/05/24 12:17:50;;;;;;;8.07;3.92;;;;;;;17.06;nan;100916.16;10436142;28;20049;-77
2022/05/24 12:23:04;;;;;;;6.25;2.85;;;;;;;15.99;nan;100452.78;10420155;28;20853;-75
2022/05/24 12:28:12;;;;;;;9.00;4.50;;;;;;;15.44;nan;100229.91;10426557;28;20045;-73
2022/05/24 12:33:18;;;;;;;9.05;4.95;;;;;;;14.87;nan;99991.53;10413332;28;20534;-73
2022/05/24 12:38:24;;;;;;;12.90;6.50;;;;;;;14.33;nan;99755.16;10414465;28;20047;-72
2022/05/24 12:43:26;;;;;;;9.82;5.90;;;;;;;14.07;nan;99642.34;10439141;28;20053;-72
2022/05/24 12:48:37;;;;;;;9.68;5.65;;;;;;;13.96;nan;99601.28;10431854;28;20104;-72
2022/05/24 12:53:39;;;;;;;4.45;3.00;;;;;;;14.10;nan;99663.34;10444117;28;20067;-72
2022/05/24 12:58:45;;;;;;;6.60;3.75;;;;;;;14.28;nan;99720.13;10444777;28;20098;-72
2022/05/24 13:04:00;;;;;;;5.75;3.25;;;;;;;14.36;nan;99751.59;10443794;28;20051;-73
2022/05/24 13:09:25;;;;;;;6.07;3.90;;;;;;;14.77;nan;99932.81;10413089;28;20045;-74
2022/05/24 13:14:48;;;;;;;4.95;3.22;;;;;;;14.98;nan;100026.53;10443699;28;20052;-73
2022/05/24 13:20:06;;;;;;;6.05;2.80;;;;;;;15.11;nan;100082.59;10419290;28;20053;-73
2022/05/24 13:25:17;;;;;;;5.72;2.60;;;;;;;15.40;nan;100194.75;10409054;28;22022;-75
2022/05/24 13:36:20;;;;;;;4.70;2.30;;;;;;;16.40;nan;100618.78;10439094;28;20063;-75
2022/05/24 13:41:29;;;;;;;2.50;1.50;;;;;;;16.49;nan;100659.25;10436251;28;20040;-77
2022/05/24 13:46:50;;;;;;;2.25;1.20;;;;;;;16.60;nan;100700.56;10418005;28;20057;-77
2022/05/24 13:51:52;;;;;;;1.02;0.80;;;;;;;16.78;nan;100773.53;10449740;28;20575;-76
2022/05/24 13:56:54;;;;;;;1.42;1.00;;;;;;;17.37;nan;101021.78;10429153;28;20051;-76
2022/05/24 14:02:08;;;;;;;2.08;0.90;;;;;;;17.42;nan;101035.84;10431579;28;20049;-77
2022/05/24 14:07:11;;;;;;;3.05;0.95;;;;;;;17.49;nan;101071.97;10430002;28;20042;-75
2022/05/24 14:12:13;;;;;;;0.88;0.88;;;;;;;17.14;nan;100914.34;10441647;28;20059;-76
2022/05/24 14:17:14;;;;;;;3.15;0.90;;;;;;;17.47;nan;101049.03;10441690;28;20041;-76
2022/05/24 14:22:16;;;;;;;2.88;0.90;;;;;;;17.92;nan;101242.97;10436420;28;20045;-78
2022/05/24 14:27:18;;;;;;;11.35;2.47;;;;;;;17.71;nan;101151.25;10462045;28;20041;-80
2022/05/24 14:32:20;;;;;;;1.25;1.00;;;;;;;17.80;nan;101185.63;10458738;28;20048;-78
2022/05/24 14:37:22;;;;;;;2.90;0.90;;;;;;;17.96;nan;101249.16;10459493;28;20041;-77
2022/05/24 14:42:32;;;;;;;4.45;1.40;;;;;;;17.96;nan;101249.16;10476338;28;20049;-77
2022/05/24 14:47:34;;;;;;;5.10;0.88;;;;;;;18.60;nan;101512.09;10466216;28;20439;-77
2022/05/24 14:52:36;;;;;;;2.70;1.00;;;;;;;17.99;nan;101243.84;10445342;28;20056;-78
2022/05/24 14:57:38;;;;;;;3.13;0.95;;;;;;;17.51;nan;101036.69;10419464;28;20993;-79
2022/05/24 15:02:53;;;;;;;1.95;0.77;;;;;;;17.22;nan;100901.03;10439966;28;20048;-84
2022/05/24 15:19:31;;;;;;;2.38;0.60;;;;;;;16.21;nan;100466.63;10436136;28;20041;-84
2022/05/24 15:24:36;;;;;;;1.05;0.50;;;;;;;16.64;nan;100637.94;10434999;28;20060;-76
2022/05/24 15:29:42;;;;;;;1.77;0.68;;;;;;;16.78;nan;100694.22;10420975;28;20090;-76
2022/05/24 15:34:44;;;;;;;1.67;0.50;;;;;;;16.97;nan;100773.41;10415930;28;20412;-75
2022/05/24 15:39:46;;;;;;;2.15;0.65;;;;;;;17.41;nan;100951.16;10430165;28;20049;-75
2022/05/24 15:44:48;;;;;;;3.25;0.50;;;;;;;17.26;nan;100881.59;10446806;28;20053;-80
2022/05/24 15:49:50;;;;;;;1.83;0.52;;;;;;;17.24;nan;100871.91;10464511;28;20045;-79
2022/05/24 15:54:52;;;;;;;3.55;0.77;;;;;;;16.54;nan;100579.03;10454172;28;20044;-79
2022/05/24 15:59:55;;;;;;;3.35;0.88;;;;;;;16.32;nan;100480.63;10464785;28;20060;-81
2022/05/24 16:10:20;;;;;;;2.40;1.17;;;;;;;16.83;nan;100682.69;10463866;28;20112;-77
2022/05/24 16:15:24;;;;;;;4.43;2.08;;;;;;;16.94;nan;100731.09;10469286;28;20116;-78
2022/05/24 16:20:26;;;;;;;5.85;1.88;;;;;;;17.25;nan;100853.38;10474029;28;20124;-79
2022/05/24 16:25:29;;;;;;;6.78;1.65;;;;;;;17.75;nan;101064.72;10450686;28;20056;-79
2022/05/24 16:30:30;;;;;;;2.67;1.10;;;;;;;17.45;nan;100935.22;10432678;28;20411;-79
2022/05/24 16:35:33;;;;;;;3.13;1.30;;;;;;;17.30;nan;100870.06;10440158;28;20052;-78
2022/05/24 16:40:34;;;;;;;5.07;1.15;;;;;;;17.02;nan;100744.25;10464071;28;20045;-77
2022/05/24 16:45:38;;;;;;;3.40;1.13;;;;;;;16.46;nan;100511.28;10452242;28;20037;-77
2022/05/24 16:50:43;;;;;;;2.88;1.02;;;;;;;16.32;nan;100451.56;10449385;28;20254;-78
2022/05/24 17:01:05;;;;;;;2.88;1.00;;;;;;;16.33;nan;100453.28;10466824;28;20136;-79
2022/05/24 17:06:08;;;;;;;1.90;0.68;;;;;;;16.30;nan;100437.47;10468841;28;20044;-79
2022/05/24 17:11:10;;;;;;;4.38;1.10;;;;;;;15.97;nan;100297.00;10457557;28;20128;-78
2022/05/24 17:16:12;;;;;;;5.18;1.40;;;;;;;15.53;nan;100111.06;10430318;28;20045;-79
2022/05/24 17:21:14;;;;;;;6.18;1.40;;;;;;;15.26;nan;100002.41;10411217;28;20198;-78
2022/05/24 17:26:16;;;;;;;4.03;1.27;;;;;;;15.35;nan;100033.91;10439348;28;20041;-78
2022/05/24 17:31:18;;;;;;;3.63;1.17;;;;;;;15.50;nan;100100.56;10443447;28;20037;-77
2022/05/24 17:36:19;;;;;;;5.22;1.30;;;;;;;16.13;nan;100358.44;10444069;28;20134;-77
2022/05/24 17:41:21;;;;;;;1.30;0.95;;;;;;;16.29;nan;100429.56;10423024;28;20044;-77
2022/05/24 17:46:23;;;;;;;3.22;1.10;;;;;;;15.73;nan;100188.19;10439486;28;20044;-77
2022/05/24 17:51:45;;;;;;;2.75;1.27;;;;;;;15.55;nan;100114.53;10439464;28;20412;-76
2022/05/24 17:56:47;;;;;;;2.60;1.27;;;;;;;15.43;nan;100061.97;10442994;28;20047;-76
2022/05/24 18:01:48;;;;;;;3.03;1.20;;;;;;;15.38;nan;100047.06;10423814;28;20040;-77
2022/05/24 18:06:50;;;;;;;3.25;1.30;;;;;;;15.23;nan;99981.34;10442920;28;20049;-76
2022/05/24 18:11:52;;;;;;;5.07;1.88;;;;;;;14.99;nan;99877.13;10436227;28;20078;-77
2022/05/24 18:16:55;;;;;;;2.97;1.27;;;;;;;14.92;nan;99855.28;10445138;28;20045;-80
2022/05/24 18:22:01;;;;;;;4.72;1.70;;;;;;;14.83;nan;99819.41;10447582;28;20052;-78
2022/05/24 18:37:47;;;;;;;6.55;1.67;;;;;;;14.65;nan;99744.16;10435725;28;20057;-78
2022/05/24 18:43:03;;;;;;;6.03;1.70;;;;;;;14.55;nan;99705.66;10436670;28;20147;-79
2022/05/24 18:48:07;;;;;;;5.38;1.77;;;;;;;14.57;nan;99718.78;10444431;28;20417;-78
2022/05/24 18:53:09;;;;;;;5.30;2.30;;;;;;;14.60;nan;99732.78;10420443;28;20044;-78
2022/05/24 18:58:12;;;;;;;9.32;1.75;;;;;;;14.52;nan;99697.78;10437262;28;20051;-78
2022/05/24 19:03:14;;;;;;;5.43;1.90;;;;;;;14.44;nan;99662.78;10431410;28;20049;-77
2022/05/24 19:08:16;;;;;;;6.15;2.00;;;;;;;14.28;nan;99607.75;10434135;28;20060;-79
2022/05/24 19:13:17;;;;;;;2.38;1.65;;;;;;;14.16;nan;99552.69;10416737;28;20497;-79
2022/05/24 19:18:21;;;;;;;6.05;1.58;;;;;;;14.04;nan;99510.81;10416197;28;20041;-78
2022/05/24 19:23:22;;;;;;;5.13;1.73;;;;;;;13.92;nan;99462.75;10439261;28;20037;-77
2022/05/24 19:28:24;;;;;;;3.22;1.77;;;;;;;13.84;nan;99434.81;10445120;28;20044;-78
2022/05/24 19:33:26;;;;;;;3.60;1.70;;;;;;;13.82;nan;99418.19;10434799;28;20049;-78
2022/05/24 19:38:29;;;;;;;6.20;1.70;;;;;;;13.73;nan;99399.03;10441064;28;20051;-78
2022/05/24 19:43:31;;;;;;;10.05;2.17;;;;;;;13.63;nan;99360.69;10441754;28;20048;-79
2022/05/24 19:48:34;;;;;;;5.30;2.00;;;;;;;13.55;nan;99326.59;10428530;28;20057;-77
2022/05/24 19:53:36;;;;;;;7.63;2.75;;;;;;;13.45;nan;99280.38;10412027;28;20145;-78
2022/05/24 19:58:38;;;;;;;4.07;2.00;;;;;;;13.35;nan;99247.25;10423677;28;20090;-78
2022/05/24 20:03:40;;;;;;;5.65;1.98;;;;;;;13.21;nan;99187.88;10439930;28;20428;-76
2022/05/24 20:08:43;;;;;;;6.75;1.50;;;;;;;13.04;nan;99124.25;10442496;28;20044;-76
2022/05/24 20:13:44;;;;;;;3.50;1.58;;;;;;;12.91;nan;99079.84;10421579;28;20409;-77
2022/05/24 20:18:46;;;;;;;3.78;1.60;;;;;;;12.77;nan;99020.59;10445572;28;20049;-76
2022/05/24 20:23:49;;;;;;;6.07;2.25;;;;;;;12.59;nan;98954.44;10433773;28;20612;-79
2022/05/24 20:28:51;;;;;;;4.32;1.65;;;;;;;12.51;nan;98917.84;10452031;28;20045;-77
2022/05/24 20:33:53;;;;;;;4.78;1.67;;;;;;;12.45;nan;98891.72;10446177;28;20037;-78
2022/05/24 20:38:56;;;;;;;5.03;1.55;;;;;;;12.46;nan;98897.81;10453812;28;20037;-78
2022/05/24 20:43:58;;;;;;;4.72;1.88;;;;;;;12.42;nan;98888.28;10446343;28;20135;-78
2022/05/24 20:49:00;;;;;;;3.85;1.70;;;;;;;12.40;nan;98883.09;10431653;28;20044;-78
2022/05/24 20:54:02;;;;;;;3.15;1.40;;;;;;;12.35;nan;98863.91;10431635;28;20047;-78
2022/05/24 20:59:03;;;;;;;2.55;1.50;;;;;;;12.38;nan;98883.13;10440912;28;20044;-78
2022/05/24 21:04:06;;;;;;;8.40;2.00;;;;;;;12.35;nan;98866.53;10434609;28;20169;-78
2022/05/24 21:09:08;;;;;;;5.80;1.70;;;;;;;12.25;nan;98829.16;10439017;28;20057;-78
2022/05/24 21:14:10;;;;;;;4.82;1.67;;;;;;;12.15;nan;98794.34;10447325;28;20148;-77
2022/05/24 21:19:12;;;;;;;3.25;1.35;;;;;;;12.06;nan;98757.84;10456802;28;20041;-77
2022/05/24 21:24:14;;;;;;;3.00;1.50;;;;;;;12.04;nan;98754.38;10441494;28;20444;-78
2022/05/24 21:29:20;;;;;;;4.32;1.55;;;;;;;11.93;nan;98714.41;10424625;28;20124;-77
2022/05/24 21:34:22;;;;;;;3.22;1.60;;;;;;;11.77;nan;98649.16;10437428;28;20041;-77
2022/05/24 21:39:23;;;;;;;4.93;1.52;;;;;;;11.65;nan;98599.63;10417597;28;20049;-76
2022/05/24 21:44:25;;;;;;;3.33;1.60;;;;;;;11.57;nan;98570.06;10394279;28;20041;-76
2022/05/24 21:49:27;;;;;;;5.30;1.83;;;;;;;11.54;nan;98563.13;10435487;28;20041;-76
2022/05/24 21:54:29;;;;;;;4.05;1.85;;;;;;;11.39;nan;98511.06;10425504;28;20138;-75
2022/05/24 21:59:36;;;;;;;4.15;2.17;;;;;;;11.28;nan;98469.41;10430981;28;20053;-76
2022/05/24 22:04:38;;;;;;;5.55;2.30;;;;;;;11.13;nan;98410.38;10436706;28;20525;-75
2022/05/24 22:09:41;;;;;;;5.03;2.20;;;;;;;10.99;nan;98363.56;10413127;28;20046;-76
2022/05/24 22:14:43;;;;;;;3.33;2.25;;;;;;;10.88;nan;98323.66;10388441;28;20048;-76
2022/05/24 22:19:44;;;;;;;5.70;2.22;;;;;;;10.79;nan;98286.34;10441165;28;20067;-76
2022/05/24 22:24:47;;;;;;;3.58;2.00;;;;;;;10.75;nan;98273.38;10427235;28;20045;-76
2022/05/24 22:29:48;;;;;;;4.75;2.13;;;;;;;10.71;nan;98259.47;10418818;28;20049;-75
2022/05/24 22:34:51;;;;;;;4.55;1.88;;;;;;;10.66;nan;98234.31;10423918;28;20052;-76
2022/05/24 22:39:53;;;;;;;3.58;2.00;;;;;;;10.61;nan;98221.34;10400567;28;20033;-78
2022/05/24 22:44:55;;;;;;;4.78;1.90;;;;;;;10.57;nan;98211.88;10411170;28;20132;-77
2022/05/24 22:49:57;;;;;;;3.28;1.80;;;;;;;10.54;nan;98202.31;10413550;28;20037;-76
2022/05/24 22:55:00;;;;;;;3.45;1.95;;;;;;;10.55;nan;98205.78;10418088;28;20621;-77
2022/05/24 23:00:04;;;;;;;3.25;1.75;;;;;;;10.57;nan;98219.72;10425472;28;20045;-77
2022/05/24 23:05:07;;;;;;;4.28;1.77;;;;;;;10.64;nan;98252.66;10425966;28;20515;-76
2022/05/24 23:10:11;;;;;;;5.57;2.00;;;;;;;10.71;nan;98280.41;10445103;28;20071;-76
2022/05/24 23:15:13;;;;;;;4.57;2.00;;;;;;;10.77;nan;98306.44;10426205;28;20520;-76
2022/05/24 23:20:15;;;;;;;4.05;2.15;;;;;;;10.81;nan;98324.69;10418767;28;20041;-76
2022/05/24 23:25:17;;;;;;;5.57;2.30;;;;;;;10.81;nan;98324.69;10432703;28;20079;-76
2022/05/24 23:30:19;;;;;;;6.72;2.60;;;;;;;10.79;nan;98325.63;10422196;28;20053;-77
2022/05/24 23:35:21;;;;;;;4.38;2.28;;;;;;;10.80;nan;98329.09;10415087;28;20041;-76
2022/05/24 23:40:23;;;;;;;7.65;2.50;;;;;;;10.77;nan;98330.00;10413852;28;20053;-77
2022/05/24 23:45:25;;;;;;;4.70;2.28;;;;;;;10.71;nan;98298.75;10401466;28;20045;-75
2022/05/24 23:50:27;;;;;;;6.28;2.40;;;;;;;10.60;nan;98272.81;10413145;28;20040;-76
2022/05/24 23:55:28;;;;;;;7.03;2.58;;;;;;;10.57;nan;98251.13;10432135;28;20041;-76
